createdAt,value
2022-07-26T00:04:43.581Z,100155.41
2022-07-26T00:09:48.223Z,100158.44
2022-07-26T00:14:50.737Z,100177.66
2022-07-26T00:19:52.243Z,100179.44
2022-07-26T00:24:53.788Z,100179.16
2022-07-26T00:29:55.280Z,100181.50
2022-07-26T00:34:56.746Z,100186.72
2022-07-26T00:39:58.381Z,100193.31
2022-07-26T00:45:00.508Z,100187.03
2022-07-26T00:50:02.429Z,100194.59
2022-07-26T00:55:06.558Z,100197.75
2022-07-26T01:00:16.965Z,100209.97
2022-07-26T01:05:18.376Z,100210.38
2022-07-26T01:10:20.491Z,100211.91
2022-07-26T01:15:23.317Z,100217.78
2022-07-26T01:20:24.806Z,100214.94
2022-07-26T01:25:43.311Z,100218.72
2022-07-26T01:30:45.443Z,100222.00
2022-07-26T01:35:47.285Z,100234.06
2022-07-26T01:40:48.754Z,100220.34
2022-07-26T01:45:50.247Z,100230.84
2022-07-26T01:50:51.733Z,100234.84
2022-07-26T01:55:53.442Z,100234.44
2022-07-26T02:00:54.927Z,100234.66
2022-07-26T02:05:56.472Z,100243.94
2022-07-26T02:11:00.555Z,100252.97
2022-07-26T02:16:08.212Z,100252.38
2022-07-26T02:21:09.904Z,100242.06
2022-07-26T02:26:11.479Z,100240.75
2022-07-26T02:31:15.529Z,100248.28
2022-07-26T02:36:17.297Z,100252.91
2022-07-26T02:41:18.854Z,100257.09
2022-07-26T02:46:20.349Z,100253.97
2022-07-26T02:51:21.831Z,100255.50
2022-07-26T02:56:23.357Z,100255.31
2022-07-26T03:01:25.121Z,100251.06
2022-07-26T03:06:26.589Z,100246.13
2022-07-26T03:11:28.144Z,100250.59
2022-07-26T03:16:30.065Z,100246.88
2022-07-26T03:21:31.623Z,100251.88
2022-07-26T03:26:33.070Z,100251.53
2022-07-26T03:31:34.636Z,100252.66
2022-07-26T03:36:36.184Z,100263.78
2022-07-26T03:41:37.629Z,100262.97
2022-07-26T03:46:39.119Z,100268.88
2022-07-26T03:51:40.612Z,100269.34
2022-07-26T03:56:42.154Z,100275.84
2022-07-26T04:01:44.160Z,100270.88
2022-07-26T04:06:47.424Z,100279.84
2022-07-26T04:11:48.926Z,100292.34
2022-07-26T04:16:50.408Z,100291.13
2022-07-26T04:21:51.886Z,100295.63
2022-07-26T04:26:53.376Z,100297.97
2022-07-26T04:31:54.816Z,100289.94
2022-07-26T04:36:56.256Z,100305.47
2022-07-26T04:41:57.685Z,100306.13
2022-07-26T04:46:59.174Z,100312.03
2022-07-26T04:52:00.692Z,100313.50
2022-07-26T04:57:02.243Z,100315.59
2022-07-26T05:02:03.797Z,100323.97
2022-07-26T05:07:05.388Z,100323.50
2022-07-26T05:12:07.319Z,100326.31
2022-07-26T05:17:10.577Z,100330.53
2022-07-26T05:22:13.741Z,100340.34
2022-07-26T05:27:15.212Z,100344.09
2022-07-26T05:32:16.819Z,100354.66
2022-07-26T05:37:18.346Z,100356.47
2022-07-26T05:42:19.793Z,100373.69
2022-07-26T05:47:21.297Z,100363.53
2022-07-26T05:52:23.272Z,100361.94
2022-07-26T05:57:25.108Z,100353.38
2022-07-26T06:02:26.640Z,100357.88
2022-07-26T06:07:28.153Z,100365.53
2022-07-26T06:12:29.631Z,100364.25
2022-07-26T06:17:31.250Z,100369.84
2022-07-26T06:22:32.749Z,100369.19
2022-07-26T06:27:34.195Z,100374.53
2022-07-26T06:32:35.778Z,100372.03
2022-07-26T06:37:38.763Z,100368.50
2022-07-26T06:42:40.254Z,100364.75
2022-07-26T06:47:41.973Z,100370.47
2022-07-26T06:52:43.522Z,100368.78
2022-07-26T06:57:50.055Z,100363.69
2022-07-26T07:02:52.124Z,100354.50
2022-07-26T07:07:53.629Z,100357.25
2022-07-26T07:12:55.769Z,100362.53
2022-07-26T07:17:57.326Z,100352.31
2022-07-26T07:22:58.779Z,100351.75
2022-07-26T07:28:00.271Z,100354.75
2022-07-26T07:33:01.761Z,100351.31
2022-07-26T07:38:05.100Z,100350.09
2022-07-26T07:43:07.409Z,100339.72
2022-07-26T07:48:08.881Z,100352.63
2022-07-26T07:53:11.582Z,100348.03
2022-07-26T07:58:13.398Z,100336.16
2022-07-26T08:03:18.007Z,100338.47
2022-07-26T08:08:22.164Z,100340.81
2022-07-26T08:13:24.555Z,100332.28
2022-07-26T08:18:26.162Z,100342.41
2022-07-26T08:23:27.654Z,100344.25
2022-07-26T08:33:51.103Z,100337.13
2022-07-26T08:38:52.707Z,100352.63
2022-07-26T08:43:54.294Z,100346.75
2022-07-26T08:48:56.909Z,100353.19
2022-07-26T08:54:05.195Z,100345.94
2022-07-26T08:59:20.614Z,100348.22
2022-07-26T09:04:32.041Z,100344.38
2022-07-26T09:09:37.276Z,100356.03
2022-07-26T09:14:39.804Z,100348.13
2022-07-26T09:19:41.441Z,100344.13
2022-07-26T09:24:47.506Z,100359.19
2022-07-26T09:29:51.763Z,100360.56
2022-07-26T09:34:59.211Z,100344.25
2022-07-26T09:40:02.668Z,100354.03
2022-07-26T09:45:16.538Z,100350.66
2022-07-26T09:50:22.681Z,100338.81
2022-07-26T09:55:24.443Z,100364.34
2022-07-26T10:00:27.896Z,100357.38
2022-07-26T10:05:29.514Z,100348.63
2022-07-26T10:10:35.037Z,100364.22
2022-07-26T10:15:40.432Z,100358.78
2022-07-26T10:20:51.985Z,100345.69
2022-07-26T10:25:53.697Z,100347.28
2022-07-26T10:31:21.086Z,100349.00
2022-07-26T10:36:32.203Z,100340.13
2022-07-26T10:41:35.025Z,100337.13
2022-07-26T10:46:36.531Z,100353.34
2022-07-26T10:51:40.990Z,100364.81
2022-07-26T10:56:42.513Z,100351.38
2022-07-26T11:01:45.436Z,100347.72
2022-07-26T11:06:47.047Z,100341.22
2022-07-26T11:11:48.757Z,100345.28
2022-07-26T11:16:50.643Z,100335.47
2022-07-26T11:21:58.975Z,100338.78
2022-07-26T11:27:04.273Z,100339.09
2022-07-26T11:32:14.793Z,100311.41
2022-07-26T11:37:18.517Z,100317.53
2022-07-26T11:42:21.551Z,100310.63
2022-07-26T11:47:25.666Z,100326.63
2022-07-26T11:52:31.732Z,100329.84
2022-07-26T11:57:33.607Z,100331.22
2022-07-26T12:02:35.136Z,100316.50
2022-07-26T12:07:36.575Z,100317.22
2022-07-26T12:12:39.486Z,100317.19
2022-07-26T12:17:58.223Z,100318.72
2022-07-26T12:23:05.010Z,100306.97
2022-07-26T12:28:07.652Z,100309.19
2022-07-26T12:33:09.155Z,100312.22
2022-07-26T12:38:10.637Z,100299.09
2022-07-26T12:43:12.305Z,100299.25
2022-07-26T12:48:14.136Z,100294.53
2022-07-26T12:53:15.606Z,100293.53
2022-07-26T12:58:17.073Z,100298.09
2022-07-26T13:03:18.645Z,100294.28
2022-07-26T13:08:20.117Z,100282.84
2022-07-26T13:13:21.725Z,100281.75
2022-07-26T13:18:23.205Z,100280.31
2022-07-26T13:23:26.753Z,100278.84
2022-07-26T13:28:28.531Z,100286.09
2022-07-26T13:33:30.026Z,100275.38
2022-07-26T13:38:33.629Z,100267.44
2022-07-26T13:43:35.855Z,100263.41
2022-07-26T13:48:37.403Z,100258.66
2022-07-26T13:53:52.075Z,100256.88
2022-07-26T13:58:56.935Z,100256.09
2022-07-26T14:03:58.453Z,100252.66
2022-07-26T14:09:00.375Z,100255.97
2022-07-26T14:14:02.069Z,100257.38
2022-07-26T14:19:03.948Z,100252.75
2022-07-26T14:24:05.798Z,100252.78
2022-07-26T14:29:07.404Z,100253.34
2022-07-26T14:34:09.120Z,100257.00
2022-07-26T14:39:10.751Z,100246.06
2022-07-26T14:44:12.506Z,100245.69
2022-07-26T14:49:14.374Z,100250.00
2022-07-26T14:54:16.840Z,100245.66
2022-07-26T14:59:18.382Z,100246.13
2022-07-26T15:04:20.017Z,100242.13
2022-07-26T15:09:21.551Z,100237.66
2022-07-26T15:14:23.015Z,100240.06
2022-07-26T15:19:25.806Z,100230.22
2022-07-26T15:24:28.711Z,100229.16
2022-07-26T15:29:30.199Z,100229.22
2022-07-26T15:34:32.664Z,100224.69
2022-07-26T15:39:34.607Z,100217.16
2022-07-26T15:44:38.446Z,100222.22
2022-07-26T15:49:40.500Z,100220.81
2022-07-26T15:54:42.489Z,100213.47
2022-07-26T15:59:44.149Z,100208.84
2022-07-26T16:04:45.583Z,100216.56
2022-07-26T16:09:48.651Z,100209.25
2022-07-26T16:14:50.144Z,100204.03
2022-07-26T16:19:52.239Z,100208.97
2022-07-26T16:24:54.145Z,100203.97
2022-07-26T16:29:55.649Z,100211.47
2022-07-26T16:34:57.119Z,100196.06
2022-07-26T16:39:58.592Z,100188.69
2022-07-26T16:45:00.228Z,100190.63
2022-07-26T16:50:02.261Z,100186.56
2022-07-26T16:55:04.440Z,100191.56
2022-07-26T17:00:08.664Z,100192.72
2022-07-26T17:05:10.723Z,100183.22
2022-07-26T17:10:12.289Z,100197.00
2022-07-26T17:15:13.839Z,100192.91
2022-07-26T17:20:15.359Z,100189.00
2022-07-26T17:25:16.905Z,100176.44
2022-07-26T17:30:18.457Z,100187.25
2022-07-26T17:35:19.998Z,100178.44
2022-07-26T17:40:22.607Z,100179.38
2022-07-26T17:45:27.685Z,100180.88
2022-07-26T17:50:38.188Z,100191.63
2022-07-26T17:55:40.059Z,100193.19
2022-07-26T18:00:41.651Z,100192.97
2022-07-26T18:05:43.383Z,100193.59
2022-07-26T18:10:50.519Z,100186.25
2022-07-26T18:15:53.356Z,100185.72
2022-07-26T18:20:54.886Z,100189.47
2022-07-26T18:25:58.013Z,100186.69
2022-07-26T18:30:59.523Z,100185.16
2022-07-26T18:36:01.581Z,100189.50
2022-07-26T18:41:03.625Z,100195.00
2022-07-26T18:46:06.450Z,100187.72
2022-07-26T18:51:08.054Z,100189.56
2022-07-26T18:56:09.551Z,100193.44
2022-07-26T19:01:11.138Z,100194.06
2022-07-26T19:06:13.122Z,100211.81
2022-07-26T19:11:14.658Z,100210.94
2022-07-26T19:16:16.253Z,100219.94
2022-07-26T19:21:17.760Z,100228.34
2022-07-26T19:26:19.394Z,100235.06
2022-07-26T19:31:21.890Z,100247.63
2022-07-26T19:36:25.831Z,100245.50
2022-07-26T19:41:27.937Z,100257.88
2022-07-26T19:46:29.517Z,100258.81
2022-07-26T19:51:31.129Z,100264.31
2022-07-26T19:56:32.597Z,100264.34
2022-07-26T20:01:34.094Z,100275.59
2022-07-26T20:06:35.652Z,100273.56
2022-07-26T20:11:37.167Z,100277.38
2022-07-26T20:16:38.690Z,100287.31
2022-07-26T20:21:40.717Z,100297.44
2022-07-26T20:26:42.794Z,100307.06
2022-07-26T20:31:44.708Z,100299.09
2022-07-26T20:36:46.506Z,100305.03
2022-07-26T20:41:48.225Z,100290.66
2022-07-26T20:46:49.891Z,100294.22
2022-07-26T20:51:51.394Z,100288.19
2022-07-26T20:56:52.837Z,100289.63
2022-07-26T21:01:54.379Z,100297.66
2022-07-26T21:06:55.942Z,100301.13
2022-07-26T21:11:57.594Z,100301.50
2022-07-26T21:16:59.146Z,100305.09
2022-07-26T21:22:00.878Z,100302.66
2022-07-26T21:27:04.125Z,100316.03
2022-07-26T21:32:05.729Z,100321.34
2022-07-26T21:37:07.218Z,100321.22
2022-07-26T21:42:08.749Z,100323.31
2022-07-26T21:47:10.270Z,100321.41
2022-07-26T21:52:11.710Z,100317.63
2022-07-26T21:57:13.176Z,100324.91
2022-07-26T22:02:14.685Z,100332.69
2022-07-26T22:07:21.386Z,100338.88
2022-07-26T22:12:22.833Z,100344.91
2022-07-26T22:17:24.279Z,100345.88
2022-07-26T22:22:25.750Z,100341.88
2022-07-26T22:27:27.440Z,100342.63
2022-07-26T22:32:28.906Z,100339.19
2022-07-26T22:37:30.367Z,100350.28
2022-07-26T22:42:32.058Z,100351.69
2022-07-26T22:47:33.531Z,100343.91
2022-07-26T22:52:35.279Z,100345.44
2022-07-26T22:57:36.797Z,100342.50
2022-07-26T23:02:38.453Z,100351.66
2022-07-26T23:07:40.156Z,100347.75
2022-07-26T23:12:42.363Z,100349.13
2022-07-26T23:17:43.950Z,100340.97
2022-07-26T23:22:45.468Z,100336.28
2022-07-26T23:27:48.523Z,100339.09
2022-07-26T23:32:49.972Z,100352.59
2022-07-26T23:37:51.458Z,100357.84
2022-07-26T23:42:53.106Z,100357.84
2022-07-26T23:47:54.559Z,100357.16
2022-07-26T23:52:55.975Z,100356.16
2022-07-26T23:57:57.529Z,100349.34
